Time;durP1;ratioP1;P1;durP2;ratioP2;P2;SDS_P1;SDS_P2;PMS_P1;PMS_P2;Temp;Humidity;BMP_temperature;BMP_pressure;BME280_temperature;BME280_humidity;BME280_pressure;Samples;Min_cycle;Max_cycle;Signal;HPM_P1;HPM_P2
2023/07/26 00:03:17;;;;;;;18.25;12.48;;;;;;;-145.68;100.00;73289.94;10174130;29;20652;-68
2023/07/26 00:08:17;;;;;;;24.02;13.57;;;;;;;-145.68;100.00;73281.94;10173607;29;20640;-68
2023/07/26 00:13:18;;;;;;;23.85;14.27;;;;;;;-145.68;100.00;73291.94;10173836;29;20216;-68
2023/07/26 00:18:18;;;;;;;24.23;14.60;;;;;;;-145.68;100.00;73299.91;10173352;29;20228;-67
2023/07/26 00:23:18;;;;;;;18.77;13.60;;;;;;;-145.68;100.00;73285.94;10173120;29;20303;-68
2023/07/26 00:28:19;;;;;;;25.65;16.33;;;;;;;-145.68;100.00;73303.91;10173307;29;20233;-67
2023/07/26 00:33:19;;;;;;;19.83;13.65;;;;;;;-145.68;100.00;73293.94;10172953;29;20288;-67
2023/07/26 00:38:19;;;;;;;20.73;13.60;;;;;;;-145.68;100.00;73295.94;10172723;29;20232;-67
2023/07/26 00:43:20;;;;;;;22.77;13.90;;;;;;;-145.68;100.00;73301.91;10172388;29;20209;-67
2023/07/26 00:48:20;;;;;;;12.43;10.82;;;;;;;-145.68;100.00;73317.91;10172247;29;20233;-67
2023/07/26 00:53:21;;;;;;;15.00;10.57;;;;;;;-145.68;100.00;73313.91;10170937;29;20217;-67
2023/07/26 00:58:21;;;;;;;14.27;10.07;;;;;;;-145.68;100.00;73315.91;10155137;29;20243;-67
2023/07/26 01:03:22;;;;;;;11.95;10.27;;;;;;;-145.68;100.00;73309.91;10170392;29;20854;-67
2023/07/26 01:08:43;;;;;;;20.08;10.20;;;;;;;-145.68;100.00;73309.91;10171058;29;20311;-67
2023/07/26 01:14:05;;;;;;;17.98;10.02;;;;;;;-145.68;100.00;73323.91;10170605;29;20683;-68
2023/07/26 01:19:06;;;;;;;17.50;10.20;;;;;;;-145.68;100.00;73307.91;10170173;29;20225;-67
2023/07/26 01:24:06;;;;;;;16.60;9.45;;;;;;;-145.68;100.00;73317.91;10171470;29;20248;-68
2023/07/26 01:29:06;;;;;;;19.00;9.00;;;;;;;-145.68;100.00;73325.91;10170952;29;20238;-68
2023/07/26 01:34:08;;;;;;;16.80;9.27;;;;;;;-145.68;100.00;73341.91;10171155;29;20209;-68
2023/07/26 01:39:09;;;;;;;20.35;9.45;;;;;;;-145.68;100.00;73341.91;10169700;29;20227;-68
2023/07/26 01:44:09;;;;;;;16.92;8.18;;;;;;;-145.68;100.00;73353.88;10170518;29;20579;-68
2023/07/26 01:49:10;;;;;;;13.45;7.82;;;;;;;-145.68;100.00;73363.88;10170284;29;20232;-68
2023/07/26 01:54:10;;;;;;;14.07;6.87;;;;;;;-145.68;100.00;73383.88;10177450;29;20245;-69
2023/07/26 01:59:10;;;;;;;11.57;6.45;;;;;;;-145.68;100.00;73417.84;10178558;29;20228;-68
2023/07/26 02:04:11;;;;;;;10.03;6.23;;;;;;;-145.68;100.00;73421.84;10177120;29;20654;-68
2023/07/26 02:09:12;;;;;;;15.73;7.17;;;;;;;-145.68;100.00;73427.84;10171441;29;20227;-69
2023/07/26 02:14:12;;;;;;;12.43;6.40;;;;;;;-145.68;100.00;73435.84;10177098;29;20219;-69
2023/07/26 02:19:13;;;;;;;13.90;7.20;;;;;;;-145.68;100.00;73435.84;10199570;29;20226;-69
2023/07/26 02:24:13;;;;;;;14.07;6.93;;;;;;;-145.68;100.00;73423.84;10217167;29;20302;-69
2023/07/26 02:29:14;;;;;;;14.13;6.83;;;;;;;-145.68;100.00;73431.84;10216779;29;20239;-69
2023/07/26 02:34:14;;;;;;;11.57;7.13;;;;;;;-145.68;100.00;73439.84;10199506;29;20628;-69
2023/07/26 02:39:15;;;;;;;17.33;7.37;;;;;;;-145.68;100.00;73447.81;10199554;29;20223;-69
2023/07/26 02:44:15;;;;;;;17.80;7.55;;;;;;;-145.68;100.00;73451.81;10216157;29;20196;-68
2023/07/26 02:49:15;;;;;;;14.80;7.80;;;;;;;-145.68;100.00;73459.81;10199252;29;20327;-69
2023/07/26 02:54:16;;;;;;;14.30;7.30;;;;;;;-145.68;100.00;73475.81;10215951;29;20208;-69
2023/07/26 02:59:18;;;;;;;14.93;7.10;;;;;;;-145.68;100.00;73483.81;10215850;29;20301;-69
2023/07/26 03:04:18;;;;;;;16.10;8.60;;;;;;;-145.68;100.00;73485.81;10215338;29;20905;-68
2023/07/26 03:09:19;;;;;;;14.87;7.43;;;;;;;-145.68;100.00;73479.81;10215079;29;20307;-68
2023/07/26 03:14:19;;;;;;;14.88;6.97;;;;;;;-145.68;100.00;73479.81;10215658;29;20212;-68
2023/07/26 03:19:19;;;;;;;22.30;8.43;;;;;;;-145.68;100.00;73467.81;10214829;29;20250;-68
2023/07/26 03:24:20;;;;;;;18.70;7.63;;;;;;;-145.68;100.00;73479.81;10215192;29;20329;-68
2023/07/26 03:29:20;;;;;;;16.27;9.07;;;;;;;-145.68;100.00;73473.81;10197442;29;20235;-69
2023/07/26 03:34:21;;;;;;;23.58;8.48;;;;;;;-145.68;100.00;73471.81;10197596;29;20233;-68
2023/07/26 03:39:21;;;;;;;15.65;8.30;;;;;;;-145.68;100.00;73463.81;10214378;29;20283;-66
2023/07/26 03:44:21;;;;;;;16.13;8.25;;;;;;;-145.68;100.00;73467.81;10214201;29;20287;-67
2023/07/26 03:49:23;;;;;;;15.32;8.48;;;;;;;-145.68;100.00;73479.81;10214478;29;20240;-66
2023/07/26 03:54:23;;;;;;;16.67;7.10;;;;;;;-145.68;100.00;73483.81;10214452;29;20204;-67
2023/07/26 03:59:24;;;;;;;21.25;7.68;;;;;;;-145.68;100.00;73483.81;10213319;29;20238;-67
2023/07/26 04:04:24;;;;;;;19.58;7.03;;;;;;;-145.68;100.00;73487.81;10213507;29;20208;-67
2023/07/26 04:09:25;;;;;;;13.93;6.03;;;;;;;-145.68;100.00;73501.78;10213170;29;20242;-67
2023/07/26 04:14:25;;;;;;;19.88;6.07;;;;;;;-145.68;100.00;73487.81;10212476;29;20219;-67
2023/07/26 04:19:25;;;;;;;15.52;5.90;;;;;;;-145.68;100.00;73489.81;10212777;29;20235;-67
2023/07/26 04:24:26;;;;;;;22.75;6.07;;;;;;;-145.68;100.00;73495.78;10212473;29;20307;-68
2023/07/26 04:29:26;;;;;;;17.67;6.10;;;;;;;-145.68;100.00;73501.78;10212786;29;20287;-68
2023/07/26 04:34:26;;;;;;;19.65;6.20;;;;;;;-145.68;100.00;73507.78;10213349;29;20390;-69
2023/07/26 04:39:27;;;;;;;9.82;5.18;;;;;;;-145.68;100.00;73499.78;10260420;23;20311;-63
2023/07/26 04:44:27;;;;;;;18.98;4.78;;;;;;;-145.68;100.00;73491.81;10251285;29;20214;-62
2023/07/26 04:49:28;;;;;;;12.82;3.85;;;;;;;-145.68;100.00;73499.78;10219162;29;20236;-63
2023/07/26 04:54:28;;;;;;;14.25;4.40;;;;;;;-145.68;100.00;73497.78;10211985;29;20208;-63
2023/07/26 04:59:28;;;;;;;11.77;4.57;;;;;;;-145.68;100.00;73485.81;10211369;29;20239;-61
2023/07/26 05:04:29;;;;;;;14.32;4.10;;;;;;;-145.68;100.00;73457.81;10211361;29;20690;-62
2023/07/26 05:09:29;;;;;;;13.02;4.10;;;;;;;-145.68;100.00;73433.84;10211053;29;20611;-61
2023/07/26 05:14:29;;;;;;;17.33;4.10;;;;;;;-145.68;100.00;73433.84;10211039;29;20291;-62
2023/07/26 05:19:30;;;;;;;18.58;3.97;;;;;;;-145.68;100.00;73435.84;10211334;29;20272;-62
2023/07/26 05:24:30;;;;;;;15.27;5.85;;;;;;;-145.68;100.00;73429.84;10209751;29;20286;-62
2023/07/26 05:29:30;;;;;;;11.25;4.15;;;;;;;-145.68;100.00;73449.81;10210618;29;20287;-63
2023/07/26 05:34:31;;;;;;;14.27;4.13;;;;;;;-145.68;100.00;73403.84;10210550;29;20314;-61
2023/07/26 05:39:32;;;;;;;4.40;3.20;;;;;;;-145.68;100.00;73383.88;10185166;29;20243;-62
2023/07/26 05:44:32;;;;;;;16.75;4.25;;;;;;;-145.68;100.00;73383.88;10170953;29;20220;-64
2023/07/26 05:49:32;;;;;;;10.68;3.15;;;;;;;-145.68;100.00;73377.88;10170847;29;20232;-63
2023/07/26 05:54:33;;;;;;;9.10;3.22;;;;;;;-145.68;100.00;73349.88;10171046;29;20208;-63
2023/07/26 05:59:34;;;;;;;11.27;2.63;;;;;;;-145.68;100.00;73343.88;10170695;29;20235;-62
2023/07/26 06:04:34;;;;;;;9.13;2.97;;;;;;;-145.68;100.00;73339.91;10170895;29;20216;-63
2023/07/26 06:09:35;;;;;;;8.68;3.15;;;;;;;-145.68;100.00;73363.88;10170539;29;20731;-63
2023/07/26 06:14:35;;;;;;;12.20;3.00;;;;;;;-145.68;100.00;73345.88;10170115;29;20723;-64
2023/07/26 06:19:36;;;;;;;12.63;3.13;;;;;;;-145.68;100.00;73335.91;10169949;29;20233;-64
2023/07/26 06:24:36;;;;;;;7.03;2.88;;;;;;;-145.68;100.00;73283.94;10170277;29;20216;-65
2023/07/26 06:29:37;;;;;;;10.52;3.45;;;;;;;-145.68;100.00;73203.97;10170253;29;20264;-65
2023/07/26 06:34:37;;;;;;;8.07;2.38;;;;;;;-145.68;100.00;73192.00;10170084;29;20212;-64
2023/07/26 06:39:37;;;;;;;9.63;2.20;;;;;;;-145.68;87.60;73128.03;10176114;29;20319;-62
2023/07/26 06:44:39;;;;;;;10.25;2.05;;;;;;;-145.68;87.03;73140.03;10177874;29;20219;-64
2023/07/26 06:49:39;;;;;;;5.68;1.73;;;;;;;-145.68;83.25;73076.06;10176952;29;20749;-64
2023/07/26 06:54:41;;;;;;;11.00;1.90;;;;;;;-145.68;77.67;73072.06;10176768;29;20220;-64
2023/07/26 06:59:41;;;;;;;7.10;1.80;;;;;;;-145.68;76.36;73122.03;10170733;29;20240;-64
2023/07/26 07:04:42;;;;;;;6.38;1.90;;;;;;;-145.68;79.44;73104.06;10175189;29;20215;-65
2023/07/26 07:09:42;;;;;;;10.10;1.95;;;;;;;-145.68;75.90;73048.09;10174714;29;20335;-64
2023/07/26 07:14:42;;;;;;;9.98;2.08;;;;;;;-145.68;73.92;73022.13;10173804;29;20699;-65
2023/07/26 07:19:46;;;;;;;8.02;2.42;;;;;;;-145.68;70.35;73086.06;10174268;29;20236;-64
2023/07/26 07:24:46;;;;;;;7.05;1.83;;;;;;;-145.68;69.36;73022.13;10174382;29;20236;-65
2023/07/26 07:29:46;;;;;;;8.27;2.50;;;;;;;-145.68;70.50;73004.13;10174528;29;20264;-65
2023/07/26 07:34:47;;;;;;;8.70;2.10;;;;;;;-145.68;69.60;73004.13;10173763;29;20219;-65
2023/07/26 07:39:47;;;;;;;8.00;2.28;;;;;;;-145.68;64.49;72942.16;10173750;29;20790;-66
2023/07/26 07:44:48;;;;;;;3.35;2.20;;;;;;;-145.68;66.25;72970.16;10172353;29;20231;-64
2023/07/26 07:49:48;;;;;;;6.32;2.03;;;;;;;-145.68;65.13;72986.13;10171587;29;20228;-66
2023/07/26 07:54:48;;;;;;;3.95;2.30;;;;;;;-145.68;64.42;72956.16;10170462;29;20209;-65
2023/07/26 07:59:49;;;;;;;5.80;2.38;;;;;;;-145.68;63.03;72910.19;10171851;29;20216;-65
2023/07/26 08:04:49;;;;;;;5.03;2.30;;;;;;;-145.68;59.16;72836.25;10172175;29;20223;-66
2023/07/26 08:09:49;;;;;;;8.55;2.10;;;;;;;-145.68;58.50;72838.25;10170580;29;20786;-65
2023/07/26 08:14:50;;;;;;;6.03;1.80;;;;;;;-145.68;59.82;72860.22;10171793;29;20564;-65
2023/07/26 08:19:50;;;;;;;6.63;2.10;;;;;;;-145.68;60.44;72984.13;10170858;29;20311;-66
2023/07/26 08:24:52;;;;;;;6.88;1.90;;;;;;;-145.68;60.94;72968.16;10172297;29;20235;-66
2023/07/26 08:29:52;;;;;;;6.65;2.13;;;;;;;-145.68;60.13;72904.19;10171408;29;20237;-65
2023/07/26 08:34:52;;;;;;;4.07;1.92;;;;;;;-145.68;60.20;73090.06;10171289;29;20231;-64
2023/07/26 08:39:53;;;;;;;4.20;2.13;;;;;;;-145.68;58.53;72800.28;10171455;29;20236;-65
2023/07/26 08:44:54;;;;;;;6.20;1.60;;;;;;;-145.68;53.98;72696.34;10170770;29;20715;-64
2023/07/26 08:49:54;;;;;;;11.30;1.98;;;;;;;-145.68;54.95;72764.31;10152819;29;20311;-65
2023/07/26 08:54:55;;;;;;;6.82;1.90;;;;;;;-145.68;56.04;72814.28;10153830;29;20204;-64
2023/07/26 08:59:55;;;;;;;6.68;2.25;;;;;;;-145.68;56.44;72840.25;10153658;29;20232;-64
2023/07/26 09:04:56;;;;;;;4.43;2.05;;;;;;;-145.68;57.42;72818.25;10170800;29;20219;-64
2023/07/26 09:09:56;;;;;;;5.95;2.15;;;;;;;-145.68;54.31;72572.47;10170574;29;20749;-65
2023/07/26 09:14:58;;;;;;;4.25;2.03;;;;;;;-145.68;52.74;72652.41;10170522;29;20219;-64
2023/07/26 09:19:58;;;;;;;7.13;2.58;;;;;;;-145.68;51.28;72684.38;10168884;29;20241;-64
2023/07/26 09:24:58;;;;;;;6.72;2.10;;;;;;;-145.68;52.85;72760.31;10170248;29;20209;-64
2023/07/26 09:29:59;;;;;;;4.88;2.00;;;;;;;-145.68;53.24;72628.41;10169674;29;20267;-64
2023/07/26 09:35:04;;;;;;;4.65;1.90;;;;;;;-145.68;50.40;72620.41;10169727;29;20268;-64
2023/07/26 09:40:05;;;;;;;4.50;2.20;;;;;;;-145.68;50.48;72576.47;10169746;29;20907;-64
2023/07/26 09:45:06;;;;;;;5.28;1.83;;;;;;;-145.68;49.93;72496.53;10169402;29;20204;-66
2023/07/26 09:50:07;;;;;;;4.18;1.67;;;;;;;-145.68;46.39;72386.63;10152275;29;20264;-65
2023/07/26 09:55:08;;;;;;;3.90;1.95;;;;;;;-145.68;48.45;72522.50;10149889;29;20272;-64
2023/07/26 10:00:11;;;;;;;3.70;1.40;;;;;;;-145.68;47.42;72482.53;10150679;29;20244;-67
2023/07/26 10:05:13;;;;;;;3.13;1.45;;;;;;;-145.68;45.05;72396.63;10168659;29;20213;-65
2023/07/26 10:10:15;;;;;;;2.95;1.00;;;;;;;-145.68;44.82;72426.59;10168763;29;20244;-66
2023/07/26 10:15:16;;;;;;;4.18;1.73;;;;;;;-145.68;42.08;72266.72;10176806;29;20216;-65
2023/07/26 10:20:17;;;;;;;4.13;1.50;;;;;;;-145.68;46.69;72726.34;10176676;29;20239;-64
2023/07/26 10:25:17;;;;;;;4.13;1.40;;;;;;;-145.68;46.44;72670.38;10175518;29;20215;-66
2023/07/26 10:30:18;;;;;;;7.63;1.20;;;;;;;-145.68;46.80;72646.41;10176364;29;20248;-65
2023/07/26 10:35:29;;;;;;;3.42;1.30;;;;;;;-145.68;46.99;72772.31;10174801;29;20208;-64
2023/07/26 10:40:32;;;;;;;2.58;1.02;;;;;;;-145.68;46.76;72680.38;10176619;29;20205;-63
2023/07/26 10:45:46;;;;;;;4.50;1.60;;;;;;;-145.68;46.00;72632.41;10200848;23;20212;-65
2023/07/26 10:50:47;;;;;;;2.05;1.25;;;;;;;-145.68;45.16;72630.41;10210104;29;20913;-65
2023/07/26 10:55:50;;;;;;;2.25;1.25;;;;;;;-145.68;43.14;72410.59;10209444;29;20238;-65
2023/07/26 11:00:50;;;;;;;2.95;1.20;;;;;;;-145.68;40.60;72238.75;10175285;29;20213;-65
2023/07/26 11:05:55;;;;;;;1.65;1.10;;;;;;;-145.68;39.28;72222.78;10174597;29;20228;-66
2023/07/26 11:10:56;;;;;;;3.90;1.10;;;;;;;-145.68;40.79;72304.69;10174743;29;20244;-65
2023/07/26 11:15:56;;;;;;;1.38;0.98;;;;;;;-145.68;41.76;72350.66;10157570;29;20707;-65
2023/07/26 11:20:56;;;;;;;1.63;1.15;;;;;;;-145.68;42.67;72390.63;10174348;29;20567;-64
2023/07/26 11:26:01;;;;;;;1.85;1.10;;;;;;;-145.68;43.44;72346.66;10173286;29;20704;-65
2023/07/26 11:31:01;;;;;;;2.72;0.80;;;;;;;-145.68;40.91;72216.78;10174084;29;20246;-66
2023/07/26 11:36:08;;;;;;;2.35;0.93;;;;;;;-145.68;37.29;72084.91;10173688;29;20710;-65
2023/07/26 11:41:08;;;;;;;3.83;1.10;;;;;;;-145.68;39.18;72188.81;10173907;29;20252;-66
2023/07/26 11:46:09;;;;;;;2.60;1.10;;;;;;;-145.68;42.83;72588.44;10173337;29;20217;-65
2023/07/26 11:51:09;;;;;;;1.98;0.80;;;;;;;-145.68;41.41;72466.56;10156655;29;20232;-65
2023/07/26 11:56:10;;;;;;;1.63;1.20;;;;;;;-145.68;41.62;72528.50;10173233;29;20246;-65
2023/07/26 12:01:12;;;;;;;3.13;1.17;;;;;;;-145.68;42.53;72574.47;10171947;29;20299;-65
2023/07/26 12:06:12;;;;;;;3.30;1.50;;;;;;;-145.68;43.82;72602.44;10173117;29;20232;-66
2023/07/26 12:11:23;;;;;;;5.18;1.00;;;;;;;-145.68;43.20;72576.47;10172395;29;20228;-66
2023/07/26 12:16:27;;;;;;;3.42;1.30;;;;;;;-145.68;46.26;72804.28;10172622;29;20240;-65
2023/07/26 12:21:29;;;;;;;2.78;1.30;;;;;;;-145.68;47.59;72878.22;10172448;29;20718;-65
2023/07/26 12:26:31;;;;;;;4.20;1.75;;;;;;;-145.68;53.30;73066.09;10170968;29;20323;-65
2023/07/26 12:31:34;;;;;;;2.45;1.40;;;;;;;-145.68;51.99;73036.09;10177536;29;20738;-65
2023/07/26 12:36:37;;;;;;;2.95;1.50;;;;;;;-145.68;50.93;72942.16;10178589;29;20235;-66
2023/07/26 12:41:39;;;;;;;2.63;1.15;;;;;;;-145.68;52.03;72940.16;10169196;29;20248;-66
2023/07/26 12:46:40;;;;;;;2.10;1.20;;;;;;;-145.68;50.99;72920.19;10170018;29;20240;-66
2023/07/26 12:51:40;;;;;;;1.67;1.10;;;;;;;-145.68;49.83;72918.19;10178003;29;20749;-66
2023/07/26 12:56:40;;;;;;;1.65;1.10;;;;;;;-145.68;48.65;72748.31;10170419;29;20237;-67
2023/07/26 13:01:41;;;;;;;4.15;1.20;;;;;;;-145.68;43.74;72492.53;10169682;29;20729;-66
2023/07/26 13:06:41;;;;;;;1.45;1.10;;;;;;;-145.68;41.91;72352.66;10168956;29;20232;-66
2023/07/26 13:11:43;;;;;;;1.17;0.80;;;;;;;-145.68;43.10;72434.59;10169781;29;20269;-67
2023/07/26 13:16:44;;;;;;;2.78;1.15;;;;;;;-145.68;41.97;72434.59;10169717;29;20232;-66
2023/07/26 13:21:45;;;;;;;2.25;1.33;;;;;;;-145.68;41.85;72366.63;10169651;29;20235;-66
2023/07/26 13:26:45;;;;;;;1.45;1.10;;;;;;;-145.68;43.78;72614.44;10169758;29;20227;-66
2023/07/26 13:31:45;;;;;;;4.22;1.00;;;;;;;-145.68;44.67;72580.47;10170178;29;20319;-66
2023/07/26 13:36:46;;;;;;;5.07;1.45;;;;;;;-145.68;42.22;72384.63;10160377;29;20243;-66
2023/07/26 13:41:46;;;;;;;2.90;1.30;;;;;;;-145.68;43.02;72348.66;10165882;29;20216;-65
2023/07/26 13:46:47;;;;;;;2.20;1.00;;;;;;;-145.68;42.66;72490.53;10167417;29;20315;-66
2023/07/26 13:51:47;;;;;;;1.17;1.00;;;;;;;-145.68;43.74;72644.41;10167857;29;20292;-66
2023/07/26 13:56:47;;;;;;;2.72;0.93;;;;;;;-145.68;44.55;72604.44;10168053;29;20247;-67
2023/07/26 14:01:48;;;;;;;2.25;1.00;;;;;;;-145.68;41.68;72440.56;10168836;29;20239;-67
2023/07/26 14:06:48;;;;;;;2.42;1.10;;;;;;;-145.68;43.25;72490.53;10167731;29;20226;-66
2023/07/26 14:11:48;;;;;;;0.90;0.82;;;;;;;-145.68;36.85;71965.00;10167326;29;20776;-66
2023/07/26 14:16:49;;;;;;;3.63;1.00;;;;;;;-145.68;38.47;72298.69;10169032;29;20240;-65
2023/07/26 14:21:49;;;;;;;2.97;0.80;;;;;;;-145.68;37.26;72068.91;10169271;29;20212;-66
2023/07/26 14:26:50;;;;;;;3.42;1.00;;;;;;;-145.68;36.28;71929.06;10168625;29;20233;-65
2023/07/26 14:31:52;;;;;;;0.75;0.70;;;;;;;-145.68;35.12;71931.06;10169416;29;20316;-67
2023/07/26 14:36:53;;;;;;;1.25;0.80;;;;;;;-145.68;35.96;72040.94;10169741;29;20312;-66
2023/07/26 14:41:53;;;;;;;1.60;1.10;;;;;;;-145.68;38.19;72318.69;10169187;29;20209;-66
2023/07/26 14:46:53;;;;;;;0.70;0.70;;;;;;;-145.68;35.50;71929.06;10170198;29;20723;-66
2023/07/26 14:51:54;;;;;;;0.85;0.68;;;;;;;-145.68;34.41;72032.94;10168313;29;20727;-65
2023/07/26 14:56:54;;;;;;;2.40;1.20;;;;;;;-145.68;33.79;71941.03;10169063;29;20719;-64
2023/07/26 15:01:54;;;;;;;1.20;0.90;;;;;;;-145.68;32.82;71783.19;10176310;29;21021;-65
2023/07/26 15:06:55;;;;;;;1.42;0.82;;;;;;;-145.68;33.93;71899.09;10176026;29;20613;-65
2023/07/26 15:11:55;;;;;;;1.95;1.10;;;;;;;-145.68;33.30;71935.03;10175922;29;20654;-66
2023/07/26 15:16:56;;;;;;;0.80;0.80;;;;;;;-145.68;32.71;71825.16;10173987;29;20612;-65
2023/07/26 15:21:56;;;;;;;2.03;1.20;;;;;;;-145.68;33.15;71865.13;10173428;29;20588;-66
2023/07/26 15:26:56;;;;;;;1.40;1.30;;;;;;;-145.68;33.03;71789.19;10175862;29;20228;-65
2023/07/26 15:31:57;;;;;;;1.97;1.00;;;;;;;-145.68;31.28;71593.41;10175871;29;20488;-65
2023/07/26 15:36:57;;;;;;;1.40;1.20;;;;;;;-145.68;33.77;71965.00;10175797;29;20472;-66
2023/07/26 15:41:57;;;;;;;2.05;1.40;;;;;;;-145.68;35.78;72160.81;10175611;29;20456;-66
2023/07/26 15:46:58;;;;;;;2.55;1.20;;;;;;;-145.68;38.23;72334.66;10175555;29;20239;-65
2023/07/26 15:51:58;;;;;;;1.30;1.20;;;;;;;-145.68;39.46;72474.53;10175344;29;20243;-65
2023/07/26 15:56:58;;;;;;;2.67;1.40;;;;;;;-145.68;40.39;72512.50;10175137;29;20255;-66
2023/07/26 16:01:59;;;;;;;2.85;1.60;;;;;;;-145.68;41.52;72586.44;10175162;29;20613;-66
2023/07/26 16:06:59;;;;;;;1.58;1.20;;;;;;;-145.68;41.03;72468.56;10174522;29;20391;-66
2023/07/26 16:11:59;;;;;;;4.53;1.20;;;;;;;-145.68;40.29;72452.56;10173965;29;20248;-66
2023/07/26 16:17:00;;;;;;;1.98;1.40;;;;;;;-145.68;40.33;72436.56;10174081;29;20404;-65
2023/07/26 16:22:00;;;;;;;1.20;1.10;;;;;;;-145.68;40.07;72460.56;10174143;29;20370;-65
2023/07/26 16:27:01;;;;;;;4.03;1.60;;;;;;;-145.68;41.53;72486.53;10173981;29;20612;-64
2023/07/26 16:32:01;;;;;;;2.38;1.40;;;;;;;-145.68;42.12;72540.50;10173595;29;20668;-66
2023/07/26 16:37:01;;;;;;;3.00;1.20;;;;;;;-145.68;43.01;72576.47;10174087;29;20592;-66
2023/07/26 16:42:02;;;;;;;1.60;1.40;;;;;;;-145.68;43.11;72648.41;10174182;29;20825;-65
2023/07/26 16:47:04;;;;;;;1.70;1.50;;;;;;;-145.68;42.39;72548.47;10216876;23;20760;-68
2023/07/26 16:52:05;;;;;;;2.58;1.40;;;;;;;-145.68;43.46;72608.44;10251341;29;20234;-68
2023/07/26 16:57:05;;;;;;;1.35;1.17;;;;;;;-145.68;43.77;72670.38;10239969;29;20239;-68
2023/07/26 17:02:11;;;;;;;1.75;1.33;;;;;;;-145.68;42.75;72654.41;10212089;29;20219;-69
2023/07/26 17:07:11;;;;;;;1.58;1.17;;;;;;;-145.68;44.58;72704.34;10211476;29;20237;-69
2023/07/26 17:12:12;;;;;;;2.15;1.60;;;;;;;-145.68;44.48;72704.34;10211783;29;20595;-69
2023/07/26 17:17:12;;;;;;;2.28;1.42;;;;;;;-145.68;43.83;72686.38;10211373;29;20714;-68
2023/07/26 17:22:12;;;;;;;1.63;1.27;;;;;;;-145.68;44.96;72728.34;10211172;29;20593;-68
2023/07/26 17:27:13;;;;;;;2.97;1.40;;;;;;;-145.68;45.47;72750.31;10211306;29;20231;-69
2023/07/26 17:32:13;;;;;;;1.25;1.15;;;;;;;-145.68;46.18;72804.28;10210808;29;20242;-68
2023/07/26 17:37:14;;;;;;;1.88;1.30;;;;;;;-145.68;46.13;72794.28;10211061;29;20302;-68
2023/07/26 17:42:14;;;;;;;1.63;1.45;;;;;;;-145.68;46.29;72788.28;10210732;29;20276;-68
2023/07/26 17:47:14;;;;;;;2.30;1.45;;;;;;;-145.68;46.61;72756.31;10210518;29;20661;-68
2023/07/26 17:52:15;;;;;;;2.35;1.25;;;;;;;-145.68;46.21;72810.28;10210542;29;20435;-68
2023/07/26 17:57:15;;;;;;;1.77;1.38;;;;;;;-145.68;46.79;72824.25;10210245;29;20231;-68
2023/07/26 18:02:16;;;;;;;1.77;1.20;;;;;;;-145.68;47.35;72864.22;10210584;29;20211;-69
2023/07/26 18:07:16;;;;;;;3.90;1.70;;;;;;;-145.68;48.65;72912.19;10210047;29;20383;-69
2023/07/26 18:12:16;;;;;;;3.85;1.45;;;;;;;-145.68;48.53;72954.16;10210172;29;20239;-70
2023/07/26 18:17:18;;;;;;;3.55;1.30;;;;;;;-145.68;49.00;72962.16;10210029;29;20235;-69
2023/07/26 18:22:18;;;;;;;1.85;1.55;;;;;;;-145.68;51.01;73024.13;10209909;29;20219;-69
2023/07/26 18:27:18;;;;;;;1.92;1.60;;;;;;;-145.68;53.16;73104.06;10209846;29;20733;-70
2023/07/26 18:32:19;;;;;;;2.17;1.70;;;;;;;-145.68;55.63;73180.00;10210782;29;20240;-69
2023/07/26 18:37:19;;;;;;;2.13;1.63;;;;;;;-145.68;58.92;73257.94;10217277;29;20266;-69
2023/07/26 18:42:19;;;;;;;2.05;1.85;;;;;;;-145.68;60.58;73315.91;10217102;29;20216;-68
2023/07/26 18:47:20;;;;;;;5.40;1.75;;;;;;;-145.68;63.34;73353.88;10216751;29;20231;-69
2023/07/26 18:52:21;;;;;;;1.80;1.42;;;;;;;-145.68;64.45;73331.91;10216801;29;20236;-69
2023/07/26 18:57:21;;;;;;;3.92;1.77;;;;;;;-145.68;66.28;73371.88;10216412;29;20614;-69
2023/07/26 19:02:21;;;;;;;1.80;1.70;;;;;;;-145.68;70.04;73429.84;10216341;29;20216;-69
2023/07/26 19:07:22;;;;;;;3.83;1.70;;;;;;;-145.68;71.22;73439.84;10216122;29;20224;-68
2023/07/26 19:12:22;;;;;;;2.33;1.63;;;;;;;-145.68;72.26;73475.81;10215805;29;20238;-69
2023/07/26 19:17:22;;;;;;;2.08;1.83;;;;;;;-145.68;74.98;73535.78;10215878;29;20236;-68
2023/07/26 19:22:23;;;;;;;2.45;2.00;;;;;;;-145.68;75.76;73531.78;10215581;29;20215;-68
2023/07/26 19:27:23;;;;;;;4.78;2.25;;;;;;;-145.68;81.35;73611.72;10215296;29;20231;-68
2023/07/26 19:32:24;;;;;;;3.15;1.90;;;;;;;-145.68;88.32;73619.72;10215345;29;20243;-68
2023/07/26 19:37:24;;;;;;;3.50;2.90;;;;;;;-145.68;88.07;73621.72;10214551;29;20708;-68
2023/07/26 19:42:25;;;;;;;5.93;2.08;;;;;;;-145.68;87.42;73635.72;10215091;29;20218;-68
2023/07/26 19:47:25;;;;;;;2.63;2.20;;;;;;;-145.68;88.84;73649.72;10213709;29;20239;-67
2023/07/26 19:52:25;;;;;;;5.53;2.30;;;;;;;-145.68;90.93;73663.69;10214571;29;20413;-68
2023/07/26 19:57:26;;;;;;;5.13;2.23;;;;;;;-145.68;95.09;73687.69;10214436;29;20330;-67
2023/07/26 20:02:26;;;;;;;2.87;2.57;;;;;;;-145.68;97.45;73693.69;10214179;29;20774;-68
2023/07/26 20:07:26;;;;;;;5.47;2.33;;;;;;;-145.68;97.99;73697.69;10214142;29;20649;-68
2023/07/26 20:12:27;;;;;;;4.10;2.73;;;;;;;-145.68;98.71;73711.66;10213636;29;20236;-68
2023/07/26 20:17:29;;;;;;;3.33;2.23;;;;;;;-145.68;98.98;73711.66;10213734;29;20224;-68
2023/07/26 20:22:29;;;;;;;4.27;2.60;;;;;;;-145.68;98.76;73707.69;10213429;29;20310;-67
2023/07/26 20:27:30;;;;;;;4.53;2.50;;;;;;;-145.68;99.69;73725.66;10213047;29;20782;-68
2023/07/26 20:32:31;;;;;;;6.10;3.00;;;;;;;-145.68;99.54;73721.66;10213266;29;20744;-68
2023/07/26 20:37:31;;;;;;;3.50;2.90;;;;;;;-145.68;99.41;73729.66;10212426;29;20242;-68
2023/07/26 20:42:31;;;;;;;4.23;2.70;;;;;;;-145.68;99.55;73729.66;10212903;29;20705;-68
2023/07/26 20:47:32;;;;;;;6.47;2.90;;;;;;;-145.68;100.00;73743.66;10212347;29;20235;-68
2023/07/26 20:52:32;;;;;;;3.13;2.57;;;;;;;-145.68;100.00;73747.66;10212210;29;20250;-68
2023/07/26 20:57:33;;;;;;;4.77;2.40;;;;;;;-145.68;100.00;73763.66;10211885;29;20724;-69
2023/07/26 21:02:33;;;;;;;3.33;2.53;;;;;;;-145.68;100.00;73765.66;10194677;29;20212;-68
2023/07/26 21:07:34;;;;;;;3.87;2.63;;;;;;;-145.68;100.00;73779.63;10211582;29;20250;-68
2023/07/26 21:12:37;;;;;;;3.10;2.90;;;;;;;-145.68;100.00;73777.63;10211561;29;20236;-68
2023/07/26 21:17:38;;;;;;;5.07;2.50;;;;;;;-145.68;100.00;73769.63;10211535;29;20247;-69
2023/07/26 21:22:38;;;;;;;3.47;2.90;;;;;;;-145.68;100.00;73761.66;10211400;29;20310;-68
2023/07/26 21:27:38;;;;;;;5.43;2.30;;;;;;;-145.68;100.00;73759.66;10210942;29;20592;-68
2023/07/26 21:32:39;;;;;;;3.53;2.43;;;;;;;-145.68;98.25;73747.66;10211288;29;20243;-69
2023/07/26 21:37:39;;;;;;;4.87;2.53;;;;;;;-145.68;96.11;73735.66;10210706;29;20232;-68
2023/07/26 21:42:39;;;;;;;5.07;2.77;;;;;;;-145.68;96.83;73743.66;10210995;29;20220;-69
2023/07/26 21:47:40;;;;;;;3.80;2.10;;;;;;;-145.68;93.58;73725.66;10210772;29;20324;-69
2023/07/26 21:52:40;;;;;;;2.90;2.70;;;;;;;-145.68;92.90;73719.66;10210599;29;20228;-68
2023/07/26 21:57:40;;;;;;;2.90;2.37;;;;;;;-145.68;87.95;73701.69;10210548;29;20395;-68
2023/07/26 22:02:43;;;;;;;2.87;1.93;;;;;;;-145.68;87.51;73699.69;10210521;29;20244;-68
2023/07/26 22:07:44;;;;;;;2.73;2.30;;;;;;;-145.68;86.03;73695.69;10211987;29;20597;-68
2023/07/26 22:12:44;;;;;;;2.30;2.00;;;;;;;-145.68;84.37;73683.69;10218102;29;20235;-68
2023/07/26 22:17:46;;;;;;;2.30;2.10;;;;;;;-145.68;84.56;73693.69;10217955;29;20283;-69
2023/07/26 22:22:47;;;;;;;4.37;2.23;;;;;;;-145.68;82.39;73675.69;10218000;29;20259;-68
2023/07/26 22:27:48;;;;;;;4.93;2.00;;;;;;;-145.68;82.50;73683.69;10217722;29;20287;-68
2023/07/26 22:32:48;;;;;;;3.73;2.53;;;;;;;-145.68;82.04;73685.69;10217405;29;20702;-68
2023/07/26 22:37:48;;;;;;;3.23;2.30;;;;;;;-145.68;81.86;73681.69;10217405;29;20227;-68